Time;durP1;ratioP1;P1;durP2;ratioP2;P2;SDS_P1;SDS_P2;PMS_P1;PMS_P2;Temp;Humidity;BMP_temperature;BMP_pressure;BME280_temperature;BME280_humidity;BME280_pressure;Samples;Min_cycle;Max_cycle;Signal;HPM_P1;HPM_P2
2023/02/09 00:01:18;;;;;;;;;;;;;;;2.72;40.68;101079.38;4982659;28;20451;-74
2023/02/09 00:03:43;;;;;;;;;;;;;;;2.71;40.42;101069.91;4969709;28;19929;-74
2023/02/09 00:06:10;;;;;;;;;;;;;;;2.70;40.33;101081.06;4983774;28;19921;-76
2023/02/09 00:08:36;;;;;;;;;;;;;;;2.69;40.32;101081.97;4970989;28;19937;-75
2023/02/09 00:11:05;;;;;;;;;;;;;;;2.67;40.92;101074.25;4983258;28;20001;-75
2023/02/09 00:13:30;;;;;;;;;;;;;;;2.65;40.35;101086.25;4983568;28;19918;-75
2023/02/09 00:15:56;;;;;;;;;;;;;;;2.63;40.37;101087.16;4985419;28;19924;-75
2023/02/09 00:18:22;;;;;;;;;;;;;;;2.61;40.39;101083.72;4967803;28;19918;-75
2023/02/09 00:20:54;;;;;;;;;;;;;;;2.59;40.81;101073.41;4969474;28;19918;-73
2023/02/09 00:23:19;;;;;;;;;;;;;;;2.60;40.69;101079.44;5000267;28;19921;-77
2023/02/09 00:25:44;;;;;;;;;;;;;;;2.58;40.28;101066.56;4969538;28;19917;-75
2023/02/09 00:28:10;;;;;;;;;;;;;;;2.57;40.51;101070.00;4983393;28;20433;-74
2023/02/09 00:30:36;;;;;;;;;;;;;;;2.58;40.84;101071.72;4970961;28;20001;-76
2023/02/09 00:33:01;;;;;;;;;;;;;;;2.56;40.63;101072.56;5000666;28;20000;-76
2023/02/09 00:35:26;;;;;;;;;;;;;;;2.54;40.85;101070.84;5001376;28;19918;-73
2023/02/09 00:37:51;;;;;;;;;;;;;;;2.56;40.99;101068.25;4975175;28;19968;-74
2023/02/09 00:40:17;;;;;;;;;;;;;;;2.54;40.72;101072.59;5000707;28;19925;-74
2023/02/09 00:42:42;;;;;;;;;;;;;;;2.54;40.84;101070.00;4969395;28;19925;-74
2023/02/09 00:45:08;;;;;;;;;;;;;;;2.53;40.42;101065.69;4983833;28;20625;-73
2023/02/09 00:47:33;;;;;;;;;;;;;;;2.53;40.48;101074.31;4984657;28;19922;-74
2023/02/09 00:49:58;;;;;;;;;;;;;;;2.53;40.65;101083.75;4982641;28;20393;-75
2023/02/09 00:52:24;;;;;;;;;;;;;;;2.53;40.34;101076.00;4968572;28;19947;-74
2023/02/09 00:54:49;;;;;;;;;;;;;;;2.53;40.60;101078.59;5001202;28;20324;-75
2023/02/09 00:57:14;;;;;;;;;;;;;;;2.52;40.62;101067.44;4982219;28;19926;-74
2023/02/09 00:59:41;;;;;;;;;;;;;;;2.51;40.55;101072.59;5002226;28;20282;-74
2023/02/09 01:02:06;;;;;;;;;;;;;;;2.52;40.65;101066.59;4968618;28;19922;-73
2023/02/09 01:04:31;;;;;;;;;;;;;;;2.52;40.93;101067.44;4983338;28;20269;-74
2023/02/09 01:06:57;;;;;;;;;;;;;;;2.52;41.14;101061.44;4970657;28;20399;-74
2023/02/09 01:09:22;;;;;;;;;;;;;;;2.51;40.86;101058.00;4983846;28;20392;-74
2023/02/09 01:11:48;;;;;;;;;;;;;;;2.51;40.44;101058.00;4987129;28;19917;-74
2023/02/09 01:14:13;;;;;;;;;;;;;;;2.50;40.42;101052.84;4988301;28;19921;-74
2023/02/09 01:16:38;;;;;;;;;;;;;;;2.48;41.08;101050.28;4988498;28;19921;-74
2023/02/09 01:19:03;;;;;;;;;;;;;;;2.48;40.30;101044.25;4970991;28;19925;-74
2023/02/09 01:21:29;;;;;;;;;;;;;;;2.49;40.63;101040.81;4986782;28;20383;-75
2023/02/09 01:23:54;;;;;;;;;;;;;;;2.47;40.89;101042.56;4987922;28;19932;-75
2023/02/09 01:26:19;;;;;;;;;;;;;;;2.46;40.90;101043.41;5003556;28;19976;-76
2023/02/09 01:28:49;;;;;;;;;;;;;;;2.44;40.80;101043.44;4986819;28;20388;-74
2023/02/09 01:31:17;;;;;;;;;;;;;;;2.44;40.19;101045.16;4973814;28;20345;-74
2023/02/09 01:33:43;;;;;;;;;;;;;;;2.42;40.68;101029.69;5003567;28;20387;-74
2023/02/09 01:36:08;;;;;;;;;;;;;;;2.41;40.01;101027.13;4985627;28;20020;-73
2023/02/09 01:38:33;;;;;;;;;;;;;;;2.41;40.58;101021.97;4988012;28;20345;-75
2023/02/09 01:40:59;;;;;;;;;;;;;;;2.40;40.02;101020.25;5003495;28;20377;-75
2023/02/09 01:43:24;;;;;;;;;;;;;;;2.39;40.47;101028.84;4987360;28;20016;-73
2023/02/09 01:45:50;;;;;;;;;;;;;;;2.37;40.32;101026.25;4985314;28;19922;-75
2023/02/09 01:48:16;;;;;;;;;;;;;;;2.36;39.97;101032.31;4987565;28;19925;-75
2023/02/09 01:50:42;;;;;;;;;;;;;;;2.35;40.04;101036.59;4969560;28;19976;-75
2023/02/09 01:53:07;;;;;;;;;;;;;;;2.33;39.88;101032.31;4972046;28;19924;-74
2023/02/09 01:55:33;;;;;;;;;;;;;;;2.32;40.37;101026.28;4977269;28;19925;-74
2023/02/09 01:58:00;;;;;;;;;;;;;;;2.34;40.42;101021.13;4971089;28;19932;-74
2023/02/09 02:00:25;;;;;;;;;;;;;;;2.33;40.20;101020.28;4986115;28;19952;-74
2023/02/09 02:02:52;;;;;;;;;;;;;;;2.33;40.23;101019.44;4977586;28;20404;-75
2023/02/09 02:05:17;;;;;;;;;;;;;;;2.32;39.98;101028.88;4987181;28;19921;-74
2023/02/09 02:07:55;;;;;;;;;;;;;;;2.31;39.70;101024.59;4987403;28;20388;-74
2023/02/09 02:10:21;;;;;;;;;;;;;;;2.31;40.33;101011.72;4985406;28;20316;-75
2023/02/09 02:12:46;;;;;;;;;;;;;;;2.32;40.19;101020.28;4985965;28;19925;-74
2023/02/09 02:15:11;;;;;;;;;;;;;;;2.30;40.27;101010.00;4986457;28;19920;-75
2023/02/09 02:17:39;;;;;;;;;;;;;;;2.30;39.60;101016.88;4976715;28;19925;-74
2023/02/09 02:20:11;;;;;;;;;;;;;;;2.27;40.14;101015.16;5003630;28;19940;-74
2023/02/09 02:22:44;;;;;;;;;;;;;;;2.28;40.30;101003.16;5004429;28;19952;-75
2023/02/09 02:25:12;;;;;;;;;;;;;;;2.26;39.57;101007.44;4988912;28;19957;-76
2023/02/09 02:28:01;;;;;;;;;;;;;;;2.26;40.19;101008.31;5002165;28;20040;-74
2023/02/09 02:30:32;;;;;;;;;;;;;;;2.27;40.13;101010.00;4906488;29;19963;-74
2023/02/09 02:33:00;;;;;;;;;;;;;;;2.26;40.31;100999.69;4903901;29;20039;-74
2023/02/09 02:35:28;;;;;;;;;;;;;;;2.25;39.96;101004.00;4889478;29;19919;-75
2023/02/09 02:38:02;;;;;;;;;;;;;;;2.25;39.57;100998.00;4882032;29;19919;-74
2023/02/09 02:40:27;;;;;;;;;;;;;;;2.24;40.20;100998.88;4889063;29;20458;-75
2023/02/09 02:42:58;;;;;;;;;;;;;;;2.22;39.72;100985.13;4904044;29;19919;-75
2023/02/09 02:45:28;;;;;;;;;;;;;;;2.22;40.04;100986.00;4898291;29;19993;-75
2023/02/09 02:48:13;;;;;;;;;;;;;;;2.22;39.75;100992.88;4872729;29;20154;-76
2023/02/09 02:50:39;;;;;;;;;;;;;;;2.21;39.40;100994.56;4905150;29;20362;-75
2023/02/09 02:53:05;;;;;;;;;;;;;;;2.20;39.65;100992.00;4896237;29;19935;-75
2023/02/09 02:55:30;;;;;;;;;;;;;;;2.19;39.70;100986.00;4872656;29;20532;-77
2023/02/09 02:57:56;;;;;;;;;;;;;;;2.19;40.01;100987.72;4897802;29;19951;-76
2023/02/09 03:00:24;;;;;;;;;;;;;;;2.19;39.39;100985.16;4895405;29;19924;-75
2023/02/09 03:02:52;;;;;;;;;;;;;;;2.18;39.86;100986.84;4888608;29;20114;-74
2023/02/09 03:05:17;;;;;;;;;;;;;;;2.18;39.35;100979.13;4881706;29;19950;-75
2023/02/09 03:07:42;;;;;;;;;;;;;;;2.18;39.79;100981.69;4952646;28;20012;-75
2023/02/09 03:10:23;;;;;;;;;;;;;;;2.17;39.51;100990.31;4984926;28;19918;-74
2023/02/09 03:12:58;;;;;;;;;;;;;;;2.17;39.56;100985.16;4986032;28;19952;-75
2023/02/09 03:15:42;;;;;;;;;;;;;;;2.17;39.40;100977.44;4985800;28;19952;-76
2023/02/09 03:18:42;;;;;;;;;;;;;;;2.16;39.41;100983.44;5002212;28;19918;-76
2023/02/09 03:21:26;;;;;;;;;;;;;;;2.15;40.09;100976.56;4896202;29;20319;-75
2023/02/09 03:24:14;;;;;;;;;;;;;;;2.13;39.89;100979.16;4904426;29;19955;-77
2023/02/09 03:26:41;;;;;;;;;;;;;;;2.13;39.46;100970.56;4820658;29;20500;-76
2023/02/09 03:29:07;;;;;;;;;;;;;;;2.11;40.08;100969.75;4803849;29;19927;-75
2023/02/09 03:31:32;;;;;;;;;;;;;;;2.10;39.71;100966.31;4820128;29;20421;-76
2023/02/09 03:33:57;;;;;;;;;;;;;;;2.09;39.99;100953.44;4804939;29;19981;-75
2023/02/09 03:36:23;;;;;;;;;;;;;;;2.10;39.97;100957.72;4804770;29;20481;-75
2023/02/09 03:38:48;;;;;;;;;;;;;;;2.09;40.04;100956.00;4820598;29;19936;-77
2023/02/09 03:41:13;;;;;;;;;;;;;;;2.07;40.13;100952.56;4819441;29;19929;-76
2023/02/09 03:46:22;;;;;;;;;;;;;;;2.04;40.11;100948.31;4819271;29;19928;-75
2023/02/09 03:48:49;;;;;;;;;;;;;;;2.05;39.92;100951.72;4819053;29;19921;-76
2023/02/09 03:51:14;;;;;;;;;;;;;;;2.02;39.90;100941.44;4819041;29;20351;-75
2023/02/09 03:53:40;;;;;;;;;;;;;;;2.01;40.20;100948.31;4803152;29;19956;-77
2023/02/09 03:56:08;;;;;;;;;;;;;;;1.99;40.20;100929.41;4883545;29;19982;-76
2023/02/09 03:58:34;;;;;;;;;;;;;;;1.99;39.96;100929.41;4893084;29;19919;-76
2023/02/09 04:01:04;;;;;;;;;;;;;;;1.97;39.49;100937.16;4905697;29;20570;-75
2023/02/09 04:03:29;;;;;;;;;;;;;;;1.97;39.40;100946.63;4913975;28;19976;-72
2023/02/09 04:05:54;;;;;;;;;;;;;;;1.95;39.95;100944.06;5003370;28;19921;-73
2023/02/09 04:08:20;;;;;;;;;;;;;;;1.95;39.69;100946.63;4974718;28;19925;-73
2023/02/09 04:10:45;;;;;;;;;;;;;;;1.92;40.19;100936.34;4985074;28;19940;-73
2023/02/09 04:13:10;;;;;;;;;;;;;;;1.94;39.80;100956.94;4982633;28;19979;-76
2023/02/09 04:15:37;;;;;;;;;;;;;;;1.91;40.22;100954.38;5002581;28;20373;-73
2023/02/09 04:18:02;;;;;;;;;;;;;;;1.90;39.86;100944.94;4983165;28;19918;-74
2023/02/09 04:20:27;;;;;;;;;;;;;;;1.88;40.30;100944.09;4985781;28;19917;-74
2023/02/09 04:22:53;;;;;;;;;;;;;;;1.88;39.91;100949.25;4983200;28;20323;-74
2023/02/09 04:25:18;;;;;;;;;;;;;;;1.89;39.86;100940.66;5002354;28;19952;-75
2023/02/09 04:27:43;;;;;;;;;;;;;;;1.86;39.88;100944.09;4983193;28;19921;-74
2023/02/09 04:30:09;;;;;;;;;;;;;;;1.85;39.50;100936.38;4983624;28;19924;-77
2023/02/09 04:32:34;;;;;;;;;;;;;;;1.83;39.70;100938.97;5002325;28;20008;-74
2023/02/09 04:34:59;;;;;;;;;;;;;;;1.83;39.33;100938.97;4971309;28;19941;-74
2023/02/09 04:37:25;;;;;;;;;;;;;;;1.81;39.80;100927.81;4970257;28;19918;-74
2023/02/09 04:39:50;;;;;;;;;;;;;;;2.29;62.86;100930.09;4975645;28;20377;-75
2023/02/09 04:42:15;;;;;;;;;;;;;;;2.43;57.06;100932.59;4969959;28;19933;-78
2023/02/09 04:44:41;;;;;;;;;;;;;;;2.44;53.56;100924.00;4975975;28;19921;-77
2023/02/09 04:47:06;;;;;;;;;;;;;;;2.39;52.58;100918.00;4988484;28;20392;-74
2023/02/09 04:49:31;;;;;;;;;;;;;;;2.35;50.73;100915.44;4987772;28;20008;-76
2023/02/09 04:51:57;;;;;;;;;;;;;;;2.29;49.96;100910.34;4977817;28;20057;-77
2023/02/09 04:54:22;;;;;;;;;;;;;;;2.24;49.28;100913.81;4979575;28;19924;-75
2023/02/09 04:59:33;;;;;;;;;;;;;;;2.21;48.44;100913.84;5005181;28;19925;-74
2023/02/09 04:59:37;;;;;;;;;;;;;;;2.16;47.79;100919.03;5005277;28;19922;-72
2023/02/09 05:02:03;;;;;;;;;;;;;;;2.12;47.26;100930.19;4978352;28;20013;-74
2023/02/09 05:04:29;;;;;;;;;;;;;;;2.09;46.06;100919.94;4979161;28;20004;-77
2023/02/09 05:06:54;;;;;;;;;;;;;;;2.07;45.66;100926.81;5005687;28;19922;-75
2023/02/09 05:09:20;;;;;;;;;;;;;;;2.04;45.78;100924.25;4986155;28;19929;-75
2023/02/09 05:11:45;;;;;;;;;;;;;;;2.02;45.45;100926.00;4987806;28;19918;-76
2023/02/09 05:14:10;;;;;;;;;;;;;;;2.01;45.20;100920.00;4987686;28;20000;-75
2023/02/09 05:16:35;;;;;;;;;;;;;;;1.98;44.88;100920.84;5003641;28;21304;-75
2023/02/09 05:19:01;;;;;;;;;;;;;;;1.96;44.81;100927.75;4988264;28;19921;-77
2023/02/09 05:21:26;;;;;;;;;;;;;;;1.96;44.48;100925.16;4986691;28;19968;-77
2023/02/09 05:23:51;;;;;;;;;;;;;;;1.96;43.74;100934.59;5004230;28;19956;-76
2023/02/09 05:26:17;;;;;;;;;;;;;;;1.96;44.08;100938.03;4973851;28;19925;-77
2023/02/09 05:28:42;;;;;;;;;;;;;;;1.99;43.83;100942.31;4972435;28;20392;-75
2023/02/09 05:31:07;;;;;;;;;;;;;;;2.01;43.34;100942.28;5004560;28;19917;-74
2023/02/09 05:33:32;;;;;;;;;;;;;;;2.05;43.08;100941.44;5004616;28;19918;-75
2023/02/09 05:35:58;;;;;;;;;;;;;;;2.09;42.66;100943.13;4985947;28;19918;-75
2023/02/09 05:38:23;;;;;;;;;;;;;;;2.20;42.83;100936.19;5006343;28;19925;-75
2023/02/09 05:40:48;;;;;;;;;;;;;;;2.40;41.75;100951.50;4986795;28;19921;-75
2023/02/09 05:43:14;;;;;;;;;;;;;;;2.60;41.53;100945.34;4987253;28;19917;-75
2023/02/09 05:45:39;;;;;;;;;;;;;;;2.77;41.06;100943.47;4987536;28;20300;-75
2023/02/09 05:48:04;;;;;;;;;;;;;;;2.97;40.61;100935.53;4985638;28;20373;-76
2023/02/09 05:50:30;;;;;;;;;;;;;;;3.21;40.18;100947.34;4986628;28;19924;-79
2023/02/09 05:52:57;;;;;;;;;;;;;;;3.48;40.06;100952.22;4973078;28;19917;-72
2023/02/09 05:55:22;;;;;;;;;;;;;;;3.79;39.09;100953.53;4968816;28;19976;-72
2023/02/09 05:57:47;;;;;;;;;;;;;;;4.11;39.12;100949.69;4982600;28;19942;-74
2023/02/09 06:00:13;;;;;;;;;;;;;;;4.40;39.03;100948.41;4984906;28;19932;-78
2023/02/09 06:02:38;;;;;;;;;;;;;;;4.68;38.46;100946.25;4969223;28;20016;-76
2023/02/09 06:05:04;;;;;;;;;;;;;;;4.96;37.54;100950.91;4983936;28;20027;-77
2023/02/09 06:07:29;;;;;;;;;;;;;;;5.23;36.98;100959.94;4986121;28;19976;-76
2023/02/09 06:09:54;;;;;;;;;;;;;;;5.50;36.44;100947.31;4972568;28;19924;-76
2023/02/09 06:12:20;;;;;;;;;;;;;;;5.80;36.40;100952.75;4977060;28;19918;-77
2023/02/09 06:14:45;;;;;;;;;;;;;;;6.18;35.37;100942.47;4986752;28;19918;-77
2023/02/09 06:17:10;;;;;;;;;;;;;;;7.81;58.50;100945.16;4994255;28;20427;-76
2023/02/09 06:19:36;;;;;;;;;;;;;;;8.63;53.39;100953.94;4985155;28;20426;-74
2023/02/09 06:22:01;;;;;;;;;;;;;;;9.27;49.40;100956.13;4968695;28;19922;-74
2023/02/09 06:24:26;;;;;;;;;;;;;;;9.70;46.63;100953.69;4986567;28;19918;-76
2023/02/09 06:26:52;;;;;;;;;;;;;;;10.02;44.83;100955.06;4966012;28;19953;-75
2023/02/09 06:29:17;;;;;;;;;;;;;;;10.43;43.12;100964.84;4995342;28;19928;-75
2023/02/09 06:31:42;;;;;;;;;;;;;;;10.83;41.90;100961.47;4993955;28;19918;-75
2023/02/09 06:34:08;;;;;;;;;;;;;;;11.28;40.76;100951.72;4993932;28;19957;-77
2023/02/09 06:36:33;;;;;;;;;;;;;;;11.74;39.69;100960.09;4993933;28;19985;-76
2023/02/09 06:38:58;;;;;;;;;;;;;;;12.22;38.37;100960.53;4993748;28;19917;-75
2023/02/09 06:41:24;;;;;;;;;;;;;;;12.80;36.75;100959.47;4993899;28;19922;-75
2023/02/09 06:43:49;;;;;;;;;;;;;;;13.37;35.87;100959.19;4977039;28;19957;-75
2023/02/09 06:46:14;;;;;;;;;;;;;;;14.01;34.69;100958.44;4977447;28;19986;-76
2023/02/09 06:48:39;;;;;;;;;;;;;;;14.72;33.26;100957.97;4976955;28;19972;-76
2023/02/09 06:51:08;;;;;;;;;;;;;;;15.51;31.66;100959.38;4993416;28;19969;-75
2023/02/09 06:53:34;;;;;;;;;;;;;;;16.40;30.04;100971.38;4977156;28;20323;-75
2023/02/09 06:56:00;;;;;;;;;;;;;;;17.31;28.06;100967.13;4977464;28;19922;-75
2023/02/09 06:58:25;;;;;;;;;;;;;;;18.37;26.81;100956.94;4976658;28;19941;-75
2023/02/09 07:00:50;;;;;;;;;;;;;;;19.51;25.41;100955.41;4976650;28;19988;-76
2023/02/09 07:03:16;;;;;;;;;;;;;;;20.53;25.20;100957.88;4995970;28;20392;-75
2023/02/09 07:05:41;;;;;;;;;;;;;;;21.44;23.52;100960.81;4996847;28;19913;-74
2023/02/09 07:08:06;;;;;;;;;;;;;;;22.20;22.56;100971.00;4975363;28;19960;-75
2023/02/09 07:10:32;;;;;;;;;;;;;;;22.75;21.68;100967.81;4982080;28;19964;-77
2023/02/09 07:12:57;;;;;;;;;;;;;;;23.07;21.10;100955.97;4971832;28;19956;-77
2023/02/09 07:15:22;;;;;;;;;;;;;;;23.22;20.82;100965.22;4990511;28;19922;-76
2023/02/09 07:17:48;;;;;;;;;;;;;;;23.18;20.88;100963.81;5005249;28;19976;-76
2023/02/09 07:20:13;;;;;;;;;;;;;;;22.89;21.15;100969.22;4978147;28;19922;-76
2023/02/09 07:22:39;;;;;;;;;;;;;;;22.48;21.34;100964.03;4982006;28;19922;-75
2023/02/09 07:25:05;;;;;;;;;;;;;;;22.07;21.92;100976.56;4960541;28;19918;-76
2023/02/09 07:27:30;;;;;;;;;;;;;;;21.82;22.35;100973.47;4966441;28;20315;-75
2023/02/09 07:29:55;;;;;;;;;;;;;;;21.63;22.72;100978.69;5001239;28;19929;-76
2023/02/09 07:32:23;;;;;;;;;;;;;;;21.58;22.54;100980.91;4984975;28;19927;-76
2023/02/09 07:34:49;;;;;;;;;;;;;;;21.56;22.53;100985.53;4984940;28;19930;-79
2023/02/09 07:37:14;;;;;;;;;;;;;;;21.67;22.60;100985.44;4977391;28;19925;-78
2023/02/09 07:39:39;;;;;;;;;;;;;;;21.73;22.68;100978.72;4967034;28;20361;-76
2023/02/09 07:42:05;;;;;;;;;;;;;;;21.68;22.64;100976.50;4966198;28;19922;-76
2023/02/09 07:44:30;;;;;;;;;;;;;;;21.78;22.71;100976.53;4974756;28;19917;-74
2023/02/09 07:46:55;;;;;;;;;;;;;;;21.85;22.94;100986.47;4982990;28;20712;-75
2023/02/09 07:49:21;;;;;;;;;;;;;;;21.91;22.52;100978.94;4974614;28;19922;-76
2023/02/09 07:51:46;;;;;;;;;;;;;;;22.02;22.67;100986.78;4980832;28;20020;-76
2023/02/09 07:54:12;;;;;;;;;;;;;;;22.16;27.88;100988.22;4973963;28;19917;-81
2023/02/09 07:56:38;;;;;;;;;;;;;;;21.85;25.99;100989.16;4981858;28;20000;-77
2023/02/09 07:59:03;;;;;;;;;;;;;;;21.91;23.72;100984.25;5003137;28;20349;-78
2023/02/09 08:01:29;;;;;;;;;;;;;;;21.81;22.60;100984.22;4975499;28;20476;-76
2023/02/09 08:03:54;;;;;;;;;;;;;;;21.84;21.32;100990.09;4969840;28;19928;-77
2023/02/09 08:06:29;;;;;;;;;;;;;;;21.96;21.08;100987.34;4975451;28;20395;-80
2023/02/09 08:08:54;;;;;;;;;;;;;;;21.98;20.29;100991.56;4982818;28;20399;-80
2023/02/09 08:11:26;;;;;;;;;;;;;;;22.04;20.01;100995.47;5000937;28;19922;-77
2023/02/09 08:13:53;;;;;;;;;;;;;;;22.21;22.99;100992.13;4970152;28;20308;-80
2023/02/09 08:16:19;;;;;;;;;;;;;;;22.37;21.49;100991.63;4983335;28;19964;-78
2023/02/09 08:18:49;;;;;;;;;;;;;;;22.38;21.01;100990.66;4983524;28;20760;-79
2023/02/09 08:21:14;;;;;;;;;;;;;;;22.44;20.26;100983.94;4984140;28;20432;-77
2023/02/09 08:23:40;;;;;;;;;;;;;;;22.48;19.61;100989.81;4983036;28;20036;-78
2023/02/09 08:26:06;;;;;;;;;;;;;;;22.40;19.02;100978.03;4982961;28;20408;-76
2023/02/09 08:28:31;;;;;;;;;;;;;;;22.55;23.17;100989.13;4984196;28;19918;-77
2023/02/09 08:30:56;;;;;;;;;;;;;;;22.50;21.56;100994.03;4968020;28;20072;-78
2023/02/09 08:33:22;;;;;;;;;;;;;;;22.53;20.78;100991.09;4983299;28;19926;-77
2023/02/09 08:35:51;;;;;;;;;;;;;;;22.65;23.30;100997.13;4982515;28;19989;-79
2023/02/09 08:38:16;;;;;;;;;;;;;;;22.58;19.84;100994.19;4981726;28;20318;-79
2023/02/09 08:40:43;;;;;;;;;;;;;;;22.54;22.26;100992.75;4981884;28;19918;-80
2023/02/09 08:43:08;;;;;;;;;;;;;;;22.46;23.20;100995.28;4984908;28;20356;-80
2023/02/09 08:45:37;;;;;;;;;;;;;;;22.39;23.99;100992.34;4986542;28;19972;-78
2023/02/09 08:48:02;;;;;;;;;;;;;;;22.45;24.97;100998.09;4974123;28;20012;-81
2023/02/09 08:50:28;;;;;;;;;;;;;;;22.59;22.34;100992.34;4985962;28;20008;-82
2023/02/09 08:52:55;;;;;;;;;;;;;;;22.62;20.17;100992.06;5005357;28;19948;-78
2023/02/09 08:55:20;;;;;;;;;;;;;;;22.59;23.99;100993.19;4986513;28;19922;-82
2023/02/09 08:57:46;;;;;;;;;;;;;;;22.54;23.76;100991.94;5003168;28;19928;-79
2023/02/09 09:00:11;;;;;;;;;;;;;;;22.58;21.77;100990.66;4976065;28;19951;-78
2023/02/09 09:02:37;;;;;;;;;;;;;;;22.75;20.36;100992.59;4968841;28;20374;-77
2023/02/09 09:05:02;;;;;;;;;;;;;;;22.93;18.61;100997.25;4981939;28;19926;-84
2023/02/09 09:07:27;;;;;;;;;;;;;;;22.94;19.95;100997.09;4974882;28;19925;-82
2023/02/09 09:09:53;;;;;;;;;;;;;;;22.89;19.30;100996.66;4965354;28;19918;-80
2023/02/09 09:12:18;;;;;;;;;;;;;;;22.93;19.33;100999.91;4984445;28;19918;-80
2023/02/09 09:14:44;;;;;;;;;;;;;;;23.03;18.43;100992.72;4979706;28;19922;-79
2023/02/09 09:17:09;;;;;;;;;;;;;;;23.15;17.46;100996.13;4982744;28;20072;-80
2023/02/09 09:19:35;;;;;;;;;;;;;;;23.35;15.17;100990.72;4985952;28;19976;-78
2023/02/09 09:22:02;;;;;;;;;;;;;;;23.48;13.65;100988.56;4974439;28;20408;-77
2023/02/09 09:24:28;;;;;;;;;;;;;;;23.64;14.28;100985.25;5008610;28;19924;-79
2023/02/09 09:26:54;;;;;;;;;;;;;;;24.06;15.13;100984.78;4974026;28;20338;-78
2023/02/09 09:29:19;;;;;;;;;;;;;;;25.13;16.57;100990.22;4976097;28;19921;-80
2023/02/09 09:31:45;;;;;;;;;;;;;;;26.70;16.26;100993.31;4991302;28;20744;-81
2023/02/09 09:34:13;;;;;;;;;;;;;;;28.22;15.39;100981.81;4994159;28;20394;-84
2023/02/09 09:36:39;;;;;;;;;;;;;;;29.31;13.14;100982.38;4994807;28;20013;-86
2023/02/09 09:39:04;;;;;;;;;;;;;;;30.06;13.24;100985.84;4992434;28;19980;-83
2023/02/09 09:41:30;;;;;;;;;;;;;;;30.09;14.21;100984.59;4977052;28;19917;-78
2023/02/09 09:43:56;;;;;;;;;;;;;;;29.61;26.04;100981.53;4999511;28;19922;-80
2023/02/09 09:46:22;;;;;;;;;;;;;;;28.74;18.69;100980.25;4978171;28;19918;-78
2023/02/09 09:48:49;;;;;;;;;;;;;;;27.88;18.02;100972.25;4976291;28;19953;-79
2023/02/09 09:51:16;;;;;;;;;;;;;;;27.05;18.78;100969.84;4979108;28;20297;-78
2023/02/09 09:53:41;;;;;;;;;;;;;;;26.74;25.13;100967.06;4979613;28;20008;-76
2023/02/09 09:56:07;;;;;;;;;;;;;;;26.60;19.55;100967.66;4967850;28;20416;-78
2023/02/09 09:58:33;;;;;;;;;;;;;;;26.42;21.97;100966.00;4972921;28;19925;-75
2023/02/09 10:00:59;;;;;;;;;;;;;;;26.40;20.61;100957.31;4988772;28;19971;-76
2023/02/09 10:03:24;;;;;;;;;;;;;;;26.34;19.58;100952.59;5006601;28;19969;-75
2023/02/09 10:05:54;;;;;;;;;;;;;;;26.26;18.77;100941.91;4989422;28;19945;-76
2023/02/09 10:08:26;;;;;;;;;;;;;;;26.16;18.75;100942.88;4967519;28;19964;-81
2023/02/09 10:11:04;;;;;;;;;;;;;;;26.15;17.99;100935.84;4984624;28;19922;-75
2023/02/09 10:13:40;;;;;;;;;;;;;;;26.05;17.76;100932.50;4989082;28;19925;-83
2023/02/09 10:16:24;;;;;;;;;;;;;;;25.84;19.71;100932.94;4978414;28;19918;-78
2023/02/09 10:18:53;;;;;;;;;;;;;;;25.60;19.55;100923.84;4978425;28;20308;-78
2023/02/09 10:21:18;;;;;;;;;;;;;;;25.51;18.70;100924.81;4981083;28;19921;-77
2023/02/09 10:23:48;;;;;;;;;;;;;;;25.41;18.51;100921.41;4997902;28;19976;-77
2023/02/09 10:26:23;;;;;;;;;;;;;;;25.22;18.24;100922.47;4980872;28;19972;-79
2023/02/09 10:28:49;;;;;;;;;;;;;;;25.23;17.70;100913.47;4980832;28;20354;-77
2023/02/09 10:31:18;;;;;;;;;;;;;;;25.10;17.12;100906.72;4980733;28;19917;-85
2023/02/09 10:33:44;;;;;;;;;;;;;;;24.97;16.61;100908.13;5016692;28;20384;-78
2023/02/09 10:36:28;;;;;;;;;;;;;;;24.77;16.18;100910.19;4980874;28;19921;-76
2023/02/09 10:39:05;;;;;;;;;;;;;;;24.52;15.88;100905.47;4996341;28;20705;-75
2023/02/09 10:41:30;;;;;;;;;;;;;;;24.33;16.28;100903.81;4997025;28;20031;-77
2023/02/09 10:43:55;;;;;;;;;;;;;;;24.03;16.56;100907.72;4996612;28;19921;-78
2023/02/09 10:46:21;;;;;;;;;;;;;;;23.86;16.59;100905.88;4996999;28;19976;-76
2023/02/09 10:48:46;;;;;;;;;;;;;;;23.64;16.24;100902.59;4996785;28;20373;-77
2023/02/09 10:51:15;;;;;;;;;;;;;;;23.41;16.25;100903.03;5013896;28;19925;-77
2023/02/09 10:54:00;;;;;;;;;;;;;;;23.19;16.83;100890.09;4996734;28;19971;-81
2023/02/09 10:56:56;;;;;;;;;;;;;;;23.00;16.94;100886.47;5015687;28;19922;-81
2023/02/09 10:59:22;;;;;;;;;;;;;;;22.83;16.99;100890.72;5016658;28;20385;-80
2023/02/09 11:01:58;;;;;;;;;;;;;;;22.60;18.10;100892.91;4999031;28;19922;-80
2023/02/09 11:04:24;;;;;;;;;;;;;;;22.44;18.82;100890.81;4996031;28;19948;-72
2023/02/09 11:06:50;;;;;;;;;;;;;;;;;;4980062;28;19921;-81
2023/02/09 11:09:16;;;;;;;;;;;;;;;21.82;16.73;100893.72;4995863;28;20019;-79
2023/02/09 11:11:41;;;;;;;;;;;;;;;21.55;15.95;100896.16;4980022;28;19993;-76
2023/02/09 11:14:13;;;;;;;;;;;;;;;21.15;15.99;100895.13;4996487;28;19957;-78
2023/02/09 11:16:54;;;;;;;;;;;;;;;20.89;15.36;100892.94;4980045;28;19960;-78
2023/02/09 11:19:24;;;;;;;;;;;;;;;20.52;15.26;100885.38;4979802;28;19918;-79
2023/02/09 11:21:56;;;;;;;;;;;;;;;20.17;15.39;100881.22;4995866;28;19921;-77
2023/02/09 11:24:35;;;;;;;;;;;;;;;20.02;15.33;100880.69;4996031;28;20008;-78
2023/02/09 11:27:21;;;;;;;;;;;;;;;19.93;15.08;100865.53;4995936;28;19928;-76
2023/02/09 11:29:51;;;;;;;;;;;;;;;19.69;15.27;100869.19;4898535;29;19923;-76
2023/02/09 11:32:21;;;;;;;;;;;;;;;19.36;15.09;100871.91;4882864;29;19919;-75
2023/02/09 11:34:55;;;;;;;;;;;;;;;19.11;15.48;100872.00;4883132;29;19923;-76
2023/02/09 11:37:33;;;;;;;;;;;;;;;18.94;15.47;100877.78;4898757;29;19927;-77
2023/02/09 11:39:58;;;;;;;;;;;;;;;18.55;15.44;100869.25;4898527;29;19962;-76
2023/02/09 11:45:10;;;;;;;;;;;;;;;18.04;15.93;100858.03;4901353;29;19975;-77
2023/02/09 11:47:44;;;;;;;;;;;;;;;17.77;16.17;100866.13;4898665;29;19923;-77
2023/02/09 11:50:14;;;;;;;;;;;;;;;17.51;16.03;100858.31;4898675;29;19922;-75
2023/02/09 11:52:43;;;;;;;;;;;;;;;17.23;16.33;100859.41;4898253;29;20477;-78
2023/02/09 11:55:26;;;;;;;;;;;;;;;16.92;16.67;100858.94;4882694;29;19975;-76
2023/02/09 11:57:53;;;;;;;;;;;;;;;16.60;17.04;100855.81;4914125;29;20458;-77
2023/02/09 12:00:20;;;;;;;;;;;;;;;16.32;17.26;100849.78;4882815;29;19923;-77
2023/02/09 12:02:54;;;;;;;;;;;;;;;16.06;17.49;100847.06;4882743;29;20413;-76
2023/02/09 12:05:19;;;;;;;;;;;;;;;15.81;17.46;100857.53;4898591;29;19971;-76
2023/02/09 12:07:54;;;;;;;;;;;;;;;15.54;17.66;100846.00;4982604;28;19921;-77
2023/02/09 12:10:25;;;;;;;;;;;;;;;15.31;17.91;100854.50;4994826;28;19940;-76
2023/02/09 12:12:58;;;;;;;;;;;;;;;15.10;18.16;100854.03;4994733;28;19918;-76
2023/02/09 12:15:23;;;;;;;;;;;;;;;14.94;17.86;100851.50;4995015;28;20020;-76
2023/02/09 12:17:49;;;;;;;;;;;;;;;14.72;18.19;100846.69;4994710;28;20359;-77
2023/02/09 12:20:33;;;;;;;;;;;;;;;14.53;18.24;100847.78;4995081;28;20393;-76
2023/02/09 12:23:03;;;;;;;;;;;;;;;14.37;18.51;100847.81;5013001;28;19957;-77
2023/02/09 12:25:47;;;;;;;;;;;;;;;14.13;18.57;100839.56;4995060;28;19917;-77
2023/02/09 12:28:12;;;;;;;;;;;;;;;13.92;18.55;100841.66;4994765;28;19918;-77
2023/02/09 12:30:41;;;;;;;;;;;;;;;13.83;18.63;100842.16;4994802;28;19921;-76
2023/02/09 12:33:15;;;;;;;;;;;;;;;13.65;18.83;100844.91;5012797;28;19924;-75
2023/02/09 12:35:56;;;;;;;;;;;;;;;13.43;18.88;100854.88;5012468;28;20056;-76
2023/02/09 12:38:22;;;;;;;;;;;;;;;13.18;19.22;100851.75;4978598;28;19933;-76
2023/02/09 12:41:03;;;;;;;;;;;;;;;12.96;19.15;100841.56;4994540;28;19977;-79
2023/02/09 12:43:29;;;;;;;;;;;;;;;12.85;19.52;100838.66;4979032;28;19917;-76
2023/02/09 12:46:10;;;;;;;;;;;;;;;12.71;19.83;100847.22;4978723;28;20380;-76
2023/02/09 12:48:55;;;;;;;;;;;;;;;12.60;19.62;100836.47;5012576;28;20004;-76
2023/02/09 12:51:38;;;;;;;;;;;;;;;12.44;20.01;100844.25;4913736;29;20505;-78